Terminal Aerodrome Forecast
Issued by NWS Wilmington, OH

Current Version | Previous Version | Graphics & Text | Print | Product List | Glossary On
Versions: 1 2 3 4 5 6 7 8 9 10 11 12 13 14 15 16
000
FTUS41 KILN 282331
TAFDAY
TAF
KDAY 282331Z 2900/2924 20006KT P6SM FEW060 BKN120
     FM290900 20006KT P6SM BKN060
     FM291500 20009KT P6SM SCT060 BKN200
     FM292100 23010KT P6SM VCTS BKN050CB=

USA.gov is the U.S. government's official web portal to all federal, state and local government web resources and services.